Time;durP1;ratioP1;P1;durP2;ratioP2;P2;SDS_P1;SDS_P2;PMS_P1;PMS_P2;Temp;Humidity;BMP_temperature;BMP_pressure;BME280_temperature;BME280_humidity;BME280_pressure;Samples;Min_cycle;Max_cycle;Signal;HPM_P1;HPM_P2
2022/04/29 00:01:55;;;;;;;11.30;7.97;;;;;;;;;;5051490;28;20079;-76
2022/04/29 00:04:20;;;;;;;10.57;8.00;;;;;;;;;;5051507;28;20021;-76
2022/04/29 00:06:46;;;;;;;12.27;9.40;;;;;;;;;;5051315;28;20027;-76
2022/04/29 00:09:11;;;;;;;12.10;8.65;;;;;;;;;;5051015;28;20078;-75
2022/04/29 00:11:36;;;;;;;13.73;8.88;;;;;;;;;;5051254;28;20029;-76
2022/04/29 00:14:02;;;;;;;13.00;9.35;;;;;;;;;;5051534;28;20021;-76
2022/04/29 00:16:27;;;;;;;11.35;8.85;;;;;;;;;;5051283;28;20506;-76
2022/04/29 00:18:52;;;;;;;10.90;8.02;;;;;;;;;;5050999;28;20071;-75
2022/04/29 00:21:18;;;;;;;11.25;8.00;;;;;;;;;;5051062;28;20453;-76
2022/04/29 00:23:43;;;;;;;9.65;6.78;;;;;;;;;;5050931;28;20423;-76
2022/04/29 00:26:08;;;;;;;8.85;6.65;;;;;;;;;;5050957;28;20028;-76
2022/04/29 00:28:33;;;;;;;8.07;6.97;;;;;;;;;;5050564;28;20146;-75
2022/04/29 00:30:59;;;;;;;8.18;6.22;;;;;;;;;;5050962;28;20028;-76
2022/04/29 00:33:24;;;;;;;7.82;6.35;;;;;;;;;;5050818;28;20050;-76
2022/04/29 00:35:49;;;;;;;9.27;6.90;;;;;;;;;;5050575;28;20044;-76
2022/04/29 00:38:17;;;;;;;9.57;7.30;;;;;;;;;;5050667;28;20111;-75
2022/04/29 00:40:42;;;;;;;13.05;7.60;;;;;;;;;;5050656;28;20040;-76
2022/04/29 00:43:08;;;;;;;10.82;7.75;;;;;;;;;;5051139;28;20041;-76
2022/04/29 00:45:33;;;;;;;11.57;7.72;;;;;;;;;;5050582;28;20025;-76
2022/04/29 00:47:59;;;;;;;9.98;7.35;;;;;;;;;;5049342;28;20505;-76
2022/04/29 00:50:26;;;;;;;11.18;8.50;;;;;;;;;;5050564;28;20025;-75
2022/04/29 00:52:53;;;;;;;10.20;8.13;;;;;;;;;;5050335;28;20032;-76
2022/04/29 00:55:22;;;;;;;17.42;10.45;;;;;;;;;;5050405;28;20433;-75
2022/04/29 00:57:51;;;;;;;14.63;10.25;;;;;;;;;;5050344;28;20032;-75
2022/04/29 01:00:18;;;;;;;15.35;10.85;;;;;;;;;;5050111;28;20032;-75
2022/04/29 01:02:46;;;;;;;13.68;9.52;;;;;;;;;;5050235;28;20394;-76
2022/04/29 01:05:14;;;;;;;13.23;9.07;;;;;;;;;;5050272;28;20039;-75
2022/04/29 01:07:42;;;;;;;12.85;8.70;;;;;;;;;;5049921;28;20021;-76
2022/04/29 01:10:10;;;;;;;14.13;8.90;;;;;;;;;;5049993;28;20036;-76
2022/04/29 01:12:37;;;;;;;10.07;7.55;;;;;;;;;;5050143;28;20402;-76
2022/04/29 01:15:08;;;;;;;14.50;9.68;;;;;;;;;;5050085;28;20033;-75
2022/04/29 01:17:36;;;;;;;13.50;9.75;;;;;;;;;;5049869;28;20486;-76
2022/04/29 01:20:06;;;;;;;12.85;8.82;;;;;;;;;;5049630;28;20410;-75
2022/04/29 01:22:32;;;;;;;10.70;8.05;;;;;;;;;;5049726;28;20025;-75
2022/04/29 01:24:58;;;;;;;10.27;7.95;;;;;;;;;;5049796;28;20079;-76
2022/04/29 01:27:23;;;;;;;16.70;8.57;;;;;;;;;;5049744;28;20056;-76
2022/04/29 01:29:58;;;;;;;10.18;7.60;;;;;;;;;;5049603;28;20027;-75
2022/04/29 01:32:25;;;;;;;13.77;8.98;;;;;;;;;;5049565;28;20075;-75
2022/04/29 01:34:50;;;;;;;10.80;7.70;;;;;;;;;;5049551;28;20059;-75
2022/04/29 01:37:16;;;;;;;12.60;7.75;;;;;;;;;;5047909;28;20052;-75
2022/04/29 01:39:41;;;;;;;11.35;9.05;;;;;;;;;;5049191;28;20076;-75
2022/04/29 01:42:07;;;;;;;14.75;9.25;;;;;;;;;;5049390;28;20459;-75
2022/04/29 01:44:32;;;;;;;14.38;8.52;;;;;;;;;;5047984;28;20478;-75
2022/04/29 01:46:57;;;;;;;12.27;8.32;;;;;;;;;;5047946;28;20024;-75
2022/04/29 01:49:22;;;;;;;12.52;8.80;;;;;;;;;;5049377;28;20021;-75
2022/04/29 01:51:48;;;;;;;15.20;9.35;;;;;;;;;;5049202;28;20056;-75
2022/04/29 01:54:14;;;;;;;13.23;9.20;;;;;;;;;;5049663;28;20040;-75
2022/04/29 01:56:40;;;;;;;12.48;8.95;;;;;;;;;;5049302;28;20029;-75
2022/04/29 01:59:05;;;;;;;12.38;9.15;;;;;;;;;;5048861;28;20041;-75
2022/04/29 02:01:31;;;;;;;10.52;8.40;;;;;;;;;;5049201;28;20036;-75
2022/04/29 02:03:58;;;;;;;17.15;8.95;;;;;;;;;;5049125;28;20036;-75
2022/04/29 02:06:24;;;;;;;14.70;9.48;;;;;;;;;;5049019;28;20487;-75
2022/04/29 02:08:49;;;;;;;12.27;8.80;;;;;;;;;;5048925;28;20035;-75
2022/04/29 02:11:17;;;;;;;13.98;8.90;;;;;;;;;;5049114;28;20312;-75
2022/04/29 02:13:44;;;;;;;12.63;9.13;;;;;;;;;;5049238;28;20100;-75
2022/04/29 02:16:09;;;;;;;14.25;9.35;;;;;;;;;;5048959;28;20017;-75
2022/04/29 02:18:34;;;;;;;16.08;9.70;;;;;;;;;;5048540;28;20035;-75
2022/04/29 02:21:00;;;;;;;12.52;9.13;;;;;;;;;;5047556;28;20083;-74
2022/04/29 02:23:25;;;;;;;12.50;8.77;;;;;;;;;;5048937;28;20410;-75
2022/04/29 02:25:51;;;;;;;11.48;8.43;;;;;;;;;;5048897;28;20017;-75
2022/04/29 02:28:16;;;;;;;11.80;8.38;;;;;;;;;;5048508;28;20033;-75
2022/04/29 02:30:41;;;;;;;10.75;8.48;;;;;;;;;;5048737;28;20029;-76
2022/04/29 02:33:07;;;;;;;13.50;8.70;;;;;;;;;;5048622;28;20420;-75
2022/04/29 02:35:33;;;;;;;12.27;7.82;;;;;;;;;;5048443;28;20387;-75
2022/04/29 02:37:58;;;;;;;10.85;8.20;;;;;;;;;;5048285;28;20082;-75
2022/04/29 02:40:24;;;;;;;11.25;8.02;;;;;;;;;;5048613;28;20409;-75
2022/04/29 02:42:49;;;;;;;14.35;8.55;;;;;;;;;;5048569;28;20165;-75
2022/04/29 02:45:15;;;;;;;14.20;8.70;;;;;;;;;;5048690;28;20080;-75
2022/04/29 02:47:40;;;;;;;12.38;8.65;;;;;;;;;;5048702;28;20040;-75
2022/04/29 02:50:06;;;;;;;13.10;9.07;;;;;;;;;;5048560;28;20027;-74
2022/04/29 02:52:31;;;;;;;14.32;9.23;;;;;;;;;;5048607;28;20025;-75
2022/04/29 02:54:57;;;;;;;13.32;9.27;;;;;;;;;;5048785;28;20029;-75
2022/04/29 02:57:22;;;;;;;14.02;8.90;;;;;;;;;;5048612;28;20033;-74
2022/04/29 02:59:47;;;;;;;12.63;9.10;;;;;;;;;;5048374;28;20392;-75
2022/04/29 03:02:12;;;;;;;14.25;8.93;;;;;;;;;;5047252;28;20036;-75
2022/04/29 03:04:38;;;;;;;13.68;9.77;;;;;;;;;;5048963;28;20029;-75
2022/04/29 03:07:03;;;;;;;13.00;8.73;;;;;;;;;;5048441;28;20032;-76
2022/04/29 03:09:29;;;;;;;11.30;8.65;;;;;;;;;;5053271;22;20348;-72
2022/04/29 03:11:54;;;;;;;11.82;8.50;;;;;;;;;;5011483;28;20037;-72
2022/04/29 03:14:19;;;;;;;13.98;9.27;;;;;;;;;;5012835;28;20479;-72
2022/04/29 03:16:45;;;;;;;13.57;8.88;;;;;;;;;;5012660;28;20285;-73
2022/04/29 03:19:10;;;;;;;12.38;8.85;;;;;;;;;;5012380;28;20029;-73
2022/04/29 03:21:36;;;;;;;13.75;9.52;;;;;;;;;;5012444;28;20021;-72
2022/04/29 03:24:01;;;;;;;15.57;8.95;;;;;;;;;;5012522;28;20517;-73
2022/04/29 03:26:27;;;;;;;12.82;8.73;;;;;;;;;;5012444;28;20022;-72
2022/04/29 03:28:53;;;;;;;13.95;9.27;;;;;;;;;;5012158;28;20221;-72
2022/04/29 03:31:18;;;;;;;12.82;9.27;;;;;;;;;;5012814;28;20030;-72
2022/04/29 03:33:43;;;;;;;14.10;9.43;;;;;;;;;;5012404;28;20442;-73
2022/04/29 03:36:09;;;;;;;13.73;9.95;;;;;;;;;;5012210;28;20037;-73
2022/04/29 03:38:35;;;;;;;14.27;9.68;;;;;;;;;;5011912;28;20022;-73
2022/04/29 03:41:01;;;;;;;12.75;8.70;;;;;;;;;;5012607;28;20022;-72
2022/04/29 03:43:27;;;;;;;17.50;10.13;;;;;;;;;;5012515;28;20096;-72
2022/04/29 03:45:53;;;;;;;25.58;14.40;;;;;;;;;;5012326;28;20109;-73
2022/04/29 03:48:19;;;;;;;14.48;9.00;;;;;;;;;;5011848;28;20121;-73
2022/04/29 03:50:44;;;;;;;13.70;8.88;;;;;;;;;;5012300;28;20128;-73
2022/04/29 03:53:09;;;;;;;14.30;8.43;;;;;;;;;;5011971;28;20026;-73
2022/04/29 03:55:35;;;;;;;11.98;9.05;;;;;;;;;;5012046;28;20021;-73
2022/04/29 03:58:04;;;;;;;12.55;8.75;;;;;;;;;;5011858;28;20364;-73
2022/04/29 04:00:32;;;;;;;11.60;8.43;;;;;;;;;;5011785;28;20038;-73
2022/04/29 04:03:05;;;;;;;9.85;8.32;;;;;;;;;;5012134;28;20480;-73
2022/04/29 04:05:30;;;;;;;13.80;8.30;;;;;;;;;;5011922;28;20235;-73
2022/04/29 04:07:56;;;;;;;12.00;8.55;;;;;;;;;;5011503;28;20537;-73
2022/04/29 04:10:21;;;;;;;16.08;8.20;;;;;;;;;;5011491;28;20108;-73
2022/04/29 04:12:49;;;;;;;13.25;9.02;;;;;;;;;;5011745;28;20038;-73
2022/04/29 04:15:16;;;;;;;17.40;9.75;;;;;;;;;;5011481;28;20037;-73
2022/04/29 04:17:42;;;;;;;13.55;8.75;;;;;;;;;;5011304;28;20034;-73
2022/04/29 04:20:09;;;;;;;15.70;10.65;;;;;;;;;;5011159;28;20368;-73
2022/04/29 04:22:35;;;;;;;13.98;9.57;;;;;;;;;;5011471;28;20032;-73
2022/04/29 04:25:06;;;;;;;18.15;9.30;;;;;;;;;;5011408;28;20252;-73
2022/04/29 04:27:32;;;;;;;12.32;8.93;;;;;;;;;;5011381;28;20106;-73
2022/04/29 04:29:58;;;;;;;14.45;9.15;;;;;;;;;;5010977;28;20030;-73
2022/04/29 04:32:24;;;;;;;13.20;9.02;;;;;;;;;;5011125;28;20201;-73
2022/04/29 04:34:50;;;;;;;13.60;9.13;;;;;;;;;;5011208;28;20061;-73
2022/04/29 04:37:26;;;;;;;15.93;9.05;;;;;;;;;;5011501;28;20476;-72
2022/04/29 04:39:52;;;;;;;12.65;9.32;;;;;;;;;;5011055;28;20112;-73
2022/04/29 04:42:18;;;;;;;14.70;9.38;;;;;;;;;;5011642;28;20106;-73
2022/04/29 04:44:45;;;;;;;14.50;9.43;;;;;;;;;;5011467;28;20522;-73
2022/04/29 04:47:10;;;;;;;12.65;8.38;;;;;;;;;;5009828;28;20148;-73
2022/04/29 04:49:36;;;;;;;14.00;9.20;;;;;;;;;;5010799;28;20104;-72
2022/04/29 04:52:01;;;;;;;13.40;9.70;;;;;;;;;;5010979;28;20201;-73
2022/04/29 04:54:27;;;;;;;11.80;8.80;;;;;;;;;;5010862;28;20026;-73
2022/04/29 04:56:52;;;;;;;12.70;9.38;;;;;;;;;;5010886;28;20025;-73
2022/04/29 04:59:17;;;;;;;12.75;8.73;;;;;;;;;;5010920;28;20641;-73
2022/04/29 05:01:43;;;;;;;11.68;9.32;;;;;;;;;;5010760;28;20439;-73
2022/04/29 05:04:08;;;;;;;12.20;9.15;;;;;;;;;;5010755;28;20026;-73
2022/04/29 05:06:36;;;;;;;13.93;8.98;;;;;;;;;;5010559;28;20022;-73
2022/04/29 05:09:02;;;;;;;11.48;8.30;;;;;;;;;;5010214;28;20037;-73
2022/04/29 05:11:27;;;;;;;15.77;9.00;;;;;;;;;;5010626;28;20033;-72
2022/04/29 05:13:52;;;;;;;13.68;9.25;;;;;;;;;;5010397;28;20390;-72
2022/04/29 05:16:18;;;;;;;11.80;8.68;;;;;;;;;;5010224;28;20033;-73
2022/04/29 05:18:43;;;;;;;15.02;8.88;;;;;;;;;;5010136;28;20502;-73
2022/04/29 05:21:08;;;;;;;16.02;9.07;;;;;;;;;;5010804;28;20049;-73
2022/04/29 05:23:36;;;;;;;15.13;9.02;;;;;;;;;;5010295;28;20494;-73
2022/04/29 05:26:02;;;;;;;13.70;8.75;;;;;;;;;;5010186;28;20361;-73
2022/04/29 05:28:27;;;;;;;13.90;8.65;;;;;;;;;;5010310;28;20440;-73
2022/04/29 05:30:52;;;;;;;17.08;9.00;;;;;;;;;;5009951;28;20026;-73
2022/04/29 05:33:18;;;;;;;12.40;9.43;;;;;;;;;;5028966;28;20040;-73
2022/04/29 05:35:43;;;;;;;13.90;9.43;;;;;;;;;;5018682;28;20034;-73
2022/04/29 05:38:09;;;;;;;32.78;9.93;;;;;;;;;;5009664;28;20040;-73
2022/04/29 05:43:18;;;;;;;12.27;9.13;;;;;;;;;;4990158;28;20408;-73
2022/04/29 05:45:43;;;;;;;11.55;8.13;;;;;;;;;;4990351;28;20022;-73
2022/04/29 05:48:08;;;;;;;14.52;8.35;;;;;;;;;;4989863;28;20034;-73
2022/04/29 05:50:34;;;;;;;12.55;8.45;;;;;;;;;;4989996;28;20058;-72
2022/04/29 05:52:59;;;;;;;14.27;8.73;;;;;;;;;;4990077;28;20065;-72
2022/04/29 05:55:25;;;;;;;17.33;10.55;;;;;;;;;;4989943;28;20069;-73
2022/04/29 05:57:50;;;;;;;15.00;9.68;;;;;;;;;;4989784;28;20032;-73
2022/04/29 06:00:16;;;;;;;15.43;9.55;;;;;;;;;;4989564;28;20580;-73
2022/04/29 06:02:43;;;;;;;13.00;8.25;;;;;;;;;;4989891;28;20488;-73
2022/04/29 06:05:09;;;;;;;13.20;8.35;;;;;;;;;;4989765;28;20022;-73
2022/04/29 06:07:34;;;;;;;11.55;8.00;;;;;;;;;;5008767;28;20407;-74
2022/04/29 06:10:00;;;;;;;10.43;7.60;;;;;;;;;;5008438;28;20044;-75
2022/04/29 06:12:26;;;;;;;11.27;7.80;;;;;;;;;;5012754;28;20033;-77
2022/04/29 06:14:51;;;;;;;10.18;7.05;;;;;;;;;;5022002;28;20031;-76
2022/04/29 06:17:16;;;;;;;10.15;7.32;;;;;;;;;;5024629;28;20041;-74
2022/04/29 06:19:42;;;;;;;16.05;10.45;;;;;;;;;;5005194;28;20547;-74
2022/04/29 06:22:07;;;;;;;17.52;9.90;;;;;;;;;;5003614;28;20034;-73
2022/04/29 06:24:33;;;;;;;12.90;9.50;;;;;;;;;;5004243;28;20333;-74
2022/04/29 06:26:58;;;;;;;11.90;8.45;;;;;;;;;;5004217;28;20030;-73
2022/04/29 06:29:24;;;;;;;12.05;8.55;;;;;;;;;;5012917;28;20014;-74
2022/04/29 06:31:49;;;;;;;16.08;8.95;;;;;;;;;;5012962;28;20032;-74
2022/04/29 06:34:14;;;;;;;11.18;8.63;;;;;;;;;;4999036;28;20064;-73
2022/04/29 06:36:41;;;;;;;11.88;8.20;;;;;;;;;;5017483;28;20568;-74
2022/04/29 06:39:06;;;;;;;13.57;8.18;;;;;;;;;;5017086;28;20475;-74
2022/04/29 06:41:31;;;;;;;14.32;7.95;;;;;;;;;;5024398;28;20091;-74
2022/04/29 06:43:57;;;;;;;9.27;8.02;;;;;;;;;;5025237;28;20668;-74
2022/04/29 06:46:24;;;;;;;11.43;7.93;;;;;;;;;;5016838;28;20052;-74
2022/04/29 06:48:50;;;;;;;9.57;7.85;;;;;;;;;;5014761;28;20044;-74
2022/04/29 06:51:16;;;;;;;12.82;8.05;;;;;;;;;;5013342;28;20056;-73
2022/04/29 06:53:41;;;;;;;11.80;7.82;;;;;;;;;;5005070;28;20049;-73
2022/04/29 06:56:06;;;;;;;11.45;7.68;;;;;;;;;;5006012;28;20038;-74
2022/04/29 06:58:32;;;;;;;9.90;8.00;;;;;;;;;;5016924;28;20045;-74
2022/04/29 07:00:57;;;;;;;12.20;7.28;;;;;;;;;;5024757;28;20504;-74
2022/04/29 07:03:22;;;;;;;13.23;7.25;;;;;;;;;;5024882;28;20597;-74
2022/04/29 07:05:50;;;;;;;9.25;7.50;;;;;;;;;;5025051;28;20465;-74
2022/04/29 07:08:16;;;;;;;9.15;7.00;;;;;;;;;;5024554;28;20446;-74
2022/04/29 07:10:42;;;;;;;11.40;7.65;;;;;;;;;;5023177;28;20029;-73
2022/04/29 07:13:07;;;;;;;10.73;7.70;;;;;;;;;;5024960;28;20029;-74
2022/04/29 07:15:32;;;;;;;11.23;7.32;;;;;;;;;;5024387;28;20113;-74
2022/04/29 07:17:58;;;;;;;8.95;7.15;;;;;;;;;;5015955;28;20026;-73
2022/04/29 07:20:23;;;;;;;8.38;7.13;;;;;;;;;;5012975;28;20663;-73
2022/04/29 07:22:49;;;;;;;9.70;7.53;;;;;;;;;;5024683;28;20549;-73
2022/04/29 07:25:14;;;;;;;9.40;7.68;;;;;;;;;;5007660;28;20030;-72
2022/04/29 07:27:40;;;;;;;12.30;7.47;;;;;;;;;;5016136;28;20129;-71
2022/04/29 07:30:11;;;;;;;11.73;7.45;;;;;;;;;;5011673;28;20033;-74
2022/04/29 07:32:37;;;;;;;12.10;7.72;;;;;;;;;;5020049;28;20108;-74
2022/04/29 07:43:14;;;;;;;9.30;7.15;;;;;;;;;;5004634;28;20457;-74
2022/04/29 07:45:40;;;;;;;9.98;7.03;;;;;;;;;;5001202;28;20125;-74
2022/04/29 07:48:06;;;;;;;10.68;7.75;;;;;;;;;;5000810;28;20033;-78
2022/04/29 07:50:33;;;;;;;12.55;7.70;;;;;;;;;;5013092;28;20263;-74
2022/04/29 07:52:59;;;;;;;8.15;7.10;;;;;;;;;;5009967;28;20113;-73
2022/04/29 07:55:25;;;;;;;12.77;7.57;;;;;;;;;;5011648;28;20045;-74
2022/04/29 07:57:51;;;;;;;8.82;7.53;;;;;;;;;;5010421;28;20061;-73
2022/04/29 08:00:17;;;;;;;12.05;7.75;;;;;;;;;;5012419;28;20518;-74
2022/04/29 08:02:42;;;;;;;8.82;7.25;;;;;;;;;;5008361;28;20038;-74
2022/04/29 08:05:07;;;;;;;10.30;7.60;;;;;;;;;;5004716;28;20029;-73
2022/04/29 08:07:33;;;;;;;10.20;7.25;;;;;;;;;;5011807;28;20022;-75
2022/04/29 08:09:59;;;;;;;9.38;7.07;;;;;;;;;;5011524;28;20560;-74
2022/04/29 08:12:26;;;;;;;13.77;8.30;;;;;;;;;;5016610;28;20025;-75
2022/04/29 08:14:53;;;;;;;10.07;7.38;;;;;;;;;;5024281;28;20030;-74
2022/04/29 08:17:19;;;;;;;11.15;7.45;;;;;;;;;;5023351;28;20102;-75
2022/04/29 08:19:44;;;;;;;13.50;8.15;;;;;;;;;;5004437;28;20029;-73
2022/04/29 08:22:10;;;;;;;12.35;8.63;;;;;;;;;;5014173;28;20032;-74
2022/04/29 08:24:35;;;;;;;13.27;8.57;;;;;;;;;;5015741;28;20033;-74
2022/04/29 08:27:00;;;;;;;15.57;8.88;;;;;;;;;;5023583;28;20027;-75
2022/04/29 08:29:26;;;;;;;13.05;9.70;;;;;;;;;;5014458;28;20022;-75
2022/04/29 08:31:51;;;;;;;12.20;8.00;;;;;;;;;;4999010;28;20030;-74
2022/04/29 08:34:19;;;;;;;11.65;8.10;;;;;;;;;;5015154;28;20700;-75
2022/04/29 08:36:44;;;;;;;9.07;7.00;;;;;;;;;;5010450;28;20025;-75
2022/04/29 08:39:10;;;;;;;10.25;7.40;;;;;;;;;;5013940;28;20619;-73
2022/04/29 08:41:38;;;;;;;9.48;7.13;;;;;;;;;;5014938;28;20453;-73
2022/04/29 08:44:09;;;;;;;8.32;6.88;;;;;;;;;;5006035;28;20112;-74
2022/04/29 08:46:35;;;;;;;10.68;6.90;;;;;;;;;;5010445;28;20124;-74
2022/04/29 08:49:03;;;;;;;9.32;7.10;;;;;;;;;;5023649;28;20108;-73
2022/04/29 08:51:29;;;;;;;8.10;6.93;;;;;;;;;;5009373;28;20686;-74
2022/04/29 08:53:54;;;;;;;13.88;8.07;;;;;;;;;;5006679;28;20103;-74
2022/04/29 08:59:04;;;;;;;11.82;6.97;;;;;;;;;;5003645;28;20349;-75
2022/04/29 09:01:31;;;;;;;12.90;7.80;;;;;;;;;;5003417;28;20026;-76
2022/04/29 09:03:56;;;;;;;11.25;7.13;;;;;;;;;;5008024;28;20034;-76
2022/04/29 09:06:22;;;;;;;13.18;8.20;;;;;;;;;;5010289;28;20086;-77
2022/04/29 09:11:26;;;;;;;10.43;7.00;;;;;;;;;;5064665;22;20053;-74
2022/04/29 09:13:51;;;;;;;8.35;6.70;;;;;;;;;;5042653;28;20033;-74
2022/04/29 09:16:17;;;;;;;14.73;7.25;;;;;;;;;;5042765;28;20677;-75
2022/04/29 09:18:42;;;;;;;11.68;6.90;;;;;;;;;;5042035;28;20080;-75
2022/04/29 09:21:14;;;;;;;9.07;6.97;;;;;;;;;;5043452;28;20025;-74
2022/04/29 09:23:43;;;;;;;9.88;6.93;;;;;;;;;;5042523;28;20012;-75
2022/04/29 09:26:28;;;;;;;12.68;7.30;;;;;;;;;;5042683;28;20441;-71
2022/04/29 09:29:13;;;;;;;10.27;7.47;;;;;;;;;;5041998;28;20033;-74
2022/04/29 09:31:52;;;;;;;8.88;7.57;;;;;;;;;;5041291;28;20122;-73
2022/04/29 09:34:18;;;;;;;8.52;6.78;;;;;;;;;;5042113;28;20332;-73
2022/04/29 09:36:43;;;;;;;10.50;7.25;;;;;;;;;;5043276;28;20716;-74
2022/04/29 09:39:27;;;;;;;8.73;6.97;;;;;;;;;;5041331;28;20036;-73
2022/04/29 09:42:00;;;;;;;10.02;7.50;;;;;;;;;;5038524;28;20021;-73
2022/04/29 09:44:36;;;;;;;11.27;7.35;;;;;;;;;;5043841;28;20032;-74
2022/04/29 09:47:13;;;;;;;12.45;7.15;;;;;;;;;;5044653;28;20029;-75
2022/04/29 09:49:39;;;;;;;9.63;6.78;;;;;;;;;;5043988;28;20028;-74
2022/04/29 09:52:05;;;;;;;10.80;7.00;;;;;;;;;;5045521;28;20399;-75
2022/04/29 09:54:37;;;;;;;14.65;7.32;;;;;;;;;;5044993;28;20102;-74
2022/04/29 09:57:12;;;;;;;10.23;6.75;;;;;;;;;;5046113;28;20044;-76
2022/04/29 09:59:39;;;;;;;10.45;6.28;;;;;;;;;;5043365;28;20044;-74
2022/04/29 10:02:05;;;;;;;8.57;6.97;;;;;;;;;;5039614;28;20505;-74
2022/04/29 10:04:35;;;;;;;11.32;7.55;;;;;;;;;;5046137;28;20025;-74
2022/04/29 10:07:08;;;;;;;9.23;7.10;;;;;;;;;;5046029;28;20025;-74
2022/04/29 10:09:35;;;;;;;12.88;9.20;;;;;;;;;;5045607;28;20021;-73
2022/04/29 10:12:03;;;;;;;11.07;7.15;;;;;;;;;;5046342;28;20481;-74
2022/04/29 10:14:36;;;;;;;12.57;7.90;;;;;;;;;;5046256;28;20017;-76
2022/04/29 10:22:40;;;;;;;11.50;8.57;;;;;;;;;;5045659;28;20043;-74
2022/04/29 10:25:08;;;;;;;9.07;8.18;;;;;;;;;;5046383;28;20033;-75
2022/04/29 10:27:35;;;;;;;14.32;9.00;;;;;;;;;;5041728;28;20509;-73
2022/04/29 10:30:01;;;;;;;12.10;7.97;;;;;;;;;;5043507;28;20446;-74
2022/04/29 10:32:26;;;;;;;9.40;7.20;;;;;;;;;;5045135;28;20021;-75
2022/04/29 10:34:55;;;;;;;10.80;6.97;;;;;;;;;;5044598;28;20029;-75
2022/04/29 10:37:31;;;;;;;12.35;6.90;;;;;;;;;;5035571;28;20039;-75
2022/04/29 10:40:07;;;;;;;7.80;6.60;;;;;;;;;;5043252;28;20025;-76
2022/04/29 10:43:09;;;;;;;9.00;6.97;;;;;;;;;;5044394;28;20025;-75
2022/04/29 10:45:36;;;;;;;12.10;6.80;;;;;;;;;;5042864;28;20468;-74
2022/04/29 10:48:37;;;;;;;11.73;6.45;;;;;;;;;;5041222;28;20063;-73
2022/04/29 10:51:26;;;;;;;8.40;6.32;;;;;;;;;;5040784;28;20036;-74
2022/04/29 10:53:57;;;;;;;8.32;6.05;;;;;;;;;;5042859;28;20032;-74
2022/04/29 10:56:28;;;;;;;8.80;6.65;;;;;;;;;;5041264;28;20108;-76
2022/04/29 10:59:15;;;;;;;9.93;5.63;;;;;;;;;;5042197;28;20036;-74
2022/04/29 11:02:05;;;;;;;10.77;6.50;;;;;;;;;;5043261;28;20091;-74
2022/04/29 11:04:31;;;;;;;12.32;6.25;;;;;;;;;;5037545;28;20021;-74
2022/04/29 11:06:56;;;;;;;12.00;7.13;;;;;;;;;;5041586;28;20509;-76
2022/04/29 11:09:34;;;;;;;12.27;7.47;;;;;;;;;;5040856;28;20031;-76
2022/04/29 11:12:00;;;;;;;9.70;6.43;;;;;;;;;;5042905;28;20446;-76
2022/04/29 11:14:26;;;;;;;9.25;6.55;;;;;;;;;;5039927;28;20037;-75
2022/04/29 11:17:08;;;;;;;11.50;6.88;;;;;;;;;;5042671;28;20091;-76
2022/04/29 11:19:35;;;;;;;9.80;6.60;;;;;;;;;;5037058;28;20044;-72
2022/04/29 11:24:53;;;;;;;10.98;6.50;;;;;;;;;;5044177;28;20098;-75
2022/04/29 11:27:25;;;;;;;8.05;6.10;;;;;;;;;;5041380;28;20029;-73
2022/04/29 11:29:52;;;;;;;8.75;6.22;;;;;;;;;;5039367;28;20542;-75
2022/04/29 11:32:24;;;;;;;7.10;5.35;;;;;;;;;;5046367;28;20017;-75
2022/04/29 11:34:57;;;;;;;9.77;5.17;;;;;;;;;;5050197;28;20075;-75
2022/04/29 11:37:34;;;;;;;7.60;5.90;;;;;;;;;;5045188;28;20285;-76
2022/04/29 11:40:08;;;;;;;7.25;5.90;;;;;;;;;;5048157;28;20090;-75
2022/04/29 11:42:33;;;;;;;7.32;5.82;;;;;;;;;;5047834;28;20025;-76
2022/04/29 11:45:10;;;;;;;10.30;6.93;;;;;;;;;;5045952;28;20032;-74
2022/04/29 11:47:36;;;;;;;9.25;6.38;;;;;;;;;;5039968;28;20025;-74
2022/04/29 11:50:03;;;;;;;8.32;7.10;;;;;;;;;;5047936;28;20029;-75
2022/04/29 11:52:30;;;;;;;9.43;6.70;;;;;;;;;;5046611;28;20478;-74
2022/04/29 11:55:17;;;;;;;7.88;5.93;;;;;;;;;;5048018;28;20112;-74
2022/04/29 11:57:47;;;;;;;10.23;6.10;;;;;;;;;;5047125;28;20020;-75
2022/04/29 12:00:27;;;;;;;9.63;5.93;;;;;;;;;;5045495;28;20032;-76
2022/04/29 12:02:53;;;;;;;8.77;6.70;;;;;;;;;;5047795;28;20025;-77
2022/04/29 12:05:28;;;;;;;8.07;5.03;;;;;;;;;;5048016;28;20047;-76
2022/04/29 12:07:59;;;;;;;10.40;5.20;;;;;;;;;;5044892;28;20031;-72
2022/04/29 12:10:26;;;;;;;7.13;4.82;;;;;;;;;;5047420;28;20063;-75
2022/04/29 12:12:56;;;;;;;6.65;4.25;;;;;;;;;;5044021;28;20033;-74
2022/04/29 12:15:42;;;;;;;5.43;3.72;;;;;;;;;;5038348;28;20506;-74
2022/04/29 12:18:09;;;;;;;5.18;4.20;;;;;;;;;;5046194;28;20029;-74
2022/04/29 12:20:39;;;;;;;6.03;4.00;;;;;;;;;;5048632;28;20029;-78
2022/04/29 12:23:15;;;;;;;4.75;3.45;;;;;;;;;;5049431;28;20079;-75
2022/04/29 12:25:45;;;;;;;8.25;3.70;;;;;;;;;;5050543;28;20029;-77
2022/04/29 12:28:30;;;;;;;7.30;4.10;;;;;;;;;;5051082;28;20051;-77
2022/04/29 12:37:04;;;;;;;8.10;4.88;;;;;;;;;;5045260;28;20048;-75
2022/04/29 12:39:41;;;;;;;5.63;4.32;;;;;;;;;;5047994;28;20044;-77
2022/04/29 12:42:09;;;;;;;5.20;4.10;;;;;;;;;;5051664;28;20032;-75
2022/04/29 12:47:49;;;;;;;4.72;3.17;;;;;;;;;;5048202;28;20126;-77
2022/04/29 12:50:21;;;;;;;3.58;3.28;;;;;;;;;;5048342;28;20123;-80
2022/04/29 12:53:06;;;;;;;4.53;3.25;;;;;;;;;;5038293;28;20030;-77
2022/04/29 12:55:47;;;;;;;3.25;2.72;;;;;;;;;;5048344;28;20440;-75
2022/04/29 12:58:15;;;;;;;;;;;;;;;;;;5048790;28;20045;-75
2022/04/29 13:01:06;;;;;;;2.95;2.75;;;;;;;;;;5051095;28;19915;-79
2022/04/29 13:03:34;;;;;;;4.35;2.90;;;;;;;;;;5047431;28;20033;-79
2022/04/29 13:06:01;;;;;;;5.22;2.80;;;;;;;;;;5050025;28;20025;-77
2022/04/29 13:08:27;;;;;;;3.92;2.88;;;;;;;;;;5049297;28;20128;-75
2022/04/29 13:10:58;;;;;;;3.00;2.70;;;;;;;;;;5048075;28;20075;-75
2022/04/29 13:13:26;;;;;;;2.75;2.55;;;;;;;;;;5052193;28;20421;-75
2022/04/29 13:15:51;;;;;;;3.83;2.65;;;;;;;;;;5044767;28;20032;-74
2022/04/29 13:18:18;;;;;;;5.43;2.72;;;;;;;;;;5045688;28;20081;-75
2022/04/29 13:20:46;;;;;;;3.55;2.50;;;;;;;;;;5044222;28;20389;-74
2022/04/29 13:23:12;;;;;;;3.45;2.80;;;;;;;;;;5046730;28;20024;-74
2022/04/29 13:25:40;;;;;;;3.05;2.40;;;;;;;;;;5043907;28;20067;-74
2022/04/29 13:28:06;;;;;;;3.30;2.50;;;;;;;;;;5046176;28;20071;-75
2022/04/29 13:30:31;;;;;;;3.45;2.88;;;;;;;;;;5046702;28;20059;-74
2022/04/29 13:32:57;;;;;;;3.85;2.75;;;;;;;;;;5048786;28;20056;-74
2022/04/29 13:35:22;;;;;;;3.38;2.60;;;;;;;;;;5045873;28;20047;-74
2022/04/29 13:37:48;;;;;;;4.10;2.65;;;;;;;;;;5046393;28;20025;-74
2022/04/29 13:40:13;;;;;;;2.88;2.33;;;;;;;;;;5049814;28;20417;-73
2022/04/29 13:42:39;;;;;;;2.90;2.60;;;;;;;;;;5049463;28;20056;-74
2022/04/29 13:45:06;;;;;;;3.00;2.50;;;;;;;;;;5048675;28;20040;-76
2022/04/29 13:47:34;;;;;;;4.32;2.40;;;;;;;;;;5050096;28;20013;-74
2022/04/29 13:50:00;;;;;;;3.17;2.75;;;;;;;;;;5049924;28;20075;-74
2022/04/29 13:55:11;;;;;;;5.57;2.70;;;;;;;;;;5048885;28;20116;-73
2022/04/29 13:57:36;;;;;;;4.25;2.72;;;;;;;;;;5047484;28;20035;-73
2022/04/29 14:00:04;;;;;;;3.47;2.67;;;;;;;;;;5049936;28;20052;-74
2022/04/29 14:02:30;;;;;;;3.95;2.50;;;;;;;;;;5048278;28;20039;-74
2022/04/29 14:04:56;;;;;;;8.73;2.85;;;;;;;;;;5048862;28;20033;-74
2022/04/29 14:07:22;;;;;;;3.45;2.88;;;;;;;;;;5049268;28;20536;-72
2022/04/29 14:09:47;;;;;;;5.82;2.70;;;;;;;;;;5049221;28;20028;-75
2022/04/29 14:12:13;;;;;;;3.63;2.75;;;;;;;;;;5049628;28;20032;-75
2022/04/29 14:14:39;;;;;;;5.22;2.47;;;;;;;;;;5049300;28;20127;-74
2022/04/29 14:17:05;;;;;;;2.40;2.20;;;;;;;;;;5047526;28;20112;-73
2022/04/29 14:19:31;;;;;;;2.78;2.53;;;;;;;;;;5049458;28;20025;-72
2022/04/29 14:21:56;;;;;;;3.95;2.40;;;;;;;;;;5049107;28;20028;-76
2022/04/29 14:24:21;;;;;;;2.95;2.70;;;;;;;;;;5049265;28;20028;-75
2022/04/29 14:26:47;;;;;;;3.25;2.58;;;;;;;;;;5052222;28;20513;-75
2022/04/29 14:29:14;;;;;;;4.10;2.83;;;;;;;;;;5060409;28;20071;-75
2022/04/29 14:31:39;;;;;;;5.80;2.90;;;;;;;;;;5058127;28;20025;-74
2022/04/29 14:34:05;;;;;;;3.63;2.70;;;;;;;;;;5061172;28;20028;-75
2022/04/29 14:36:32;;;;;;;3.97;2.70;;;;;;;;;;5051519;28;20199;-76
2022/04/29 14:38:59;;;;;;;3.05;2.63;;;;;;;;;;5056167;28;20037;-75
2022/04/29 14:41:24;;;;;;;2.78;2.58;;;;;;;;;;5053317;28;20036;-75
2022/04/29 14:43:50;;;;;;;4.80;2.50;;;;;;;;;;5053963;28;20025;-76
2022/04/29 14:46:15;;;;;;;3.47;2.58;;;;;;;;;;5053569;28;20025;-76
2022/04/29 14:48:42;;;;;;;3.33;2.72;;;;;;;;;;5052150;28;20025;-77
2022/04/29 14:51:09;;;;;;;4.80;3.10;;;;;;;;;;5053350;28;20166;-76
2022/04/29 14:53:35;;;;;;;3.63;3.08;;;;;;;;;;5053774;28;20021;-77
2022/04/29 14:56:01;;;;;;;3.95;2.78;;;;;;;;;;5054127;28;20025;-78
2022/04/29 14:58:26;;;;;;;4.38;2.72;;;;;;;;;;5051901;28;20080;-76
2022/04/29 15:00:52;;;;;;;4.53;2.78;;;;;;;;;;5051484;28;20108;-75
2022/04/29 15:03:17;;;;;;;4.38;2.67;;;;;;;;;;5055987;28;20450;-75
2022/04/29 15:05:43;;;;;;;3.78;2.50;;;;;;;;;;5058261;28;20482;-75
2022/04/29 15:08:08;;;;;;;5.05;2.53;;;;;;;;;;5057530;28;20020;-75
2022/04/29 15:16:02;;;;;;;3.85;2.70;;;;;;;;;;5050886;28;20040;-76
2022/04/29 15:18:27;;;;;;;2.85;2.53;;;;;;;;;;5052324;28;20437;-75
2022/04/29 15:20:52;;;;;;;3.45;2.80;;;;;;;;;;5052560;28;20422;-76